Terminal Aerodrome Forecast
Issued by NWS

Home | Current Version | Previous Version | Text Only | Print | Product List | Glossary On
Versions: 1 2 3 4 5 6 7 8 9 10 11 12 13 14 15 16 17 18 19 20
000
FTUS42 KKEY 251733
TAFMTH
TAF
KMTH 251733Z 2518/2618 01009KT P6SM FEW035
     FM252100 32005KT P6SM FEW035
     FM260000 VRB03KT P6SM SCT035
     FM260500 25008KT P6SM BKN030
     FM260900 27012KT P6SM BKN035
     FM261100 28016G24KT P6SM BKN040=

USA.gov is the U.S. government's official web portal to all federal, state and local government web resources and services.